Time;durP1;ratioP1;P1;durP2;ratioP2;P2;SDS_P1;SDS_P2;PMS_P1;PMS_P2;Temp;Humidity;BMP_temperature;BMP_pressure;BME280_temperature;BME280_humidity;BME280_pressure;Samples;Min_cycle;Max_cycle;Signal;HPM_P1;HPM_P2
2021/04/27 00:01:17;;;;;;;11.25;5.20;;;;;;;;;;5145497;27;20414;-68
2021/04/27 00:03:44;;;;;;;10.40;4.47;;;;;;;;;;5153696;27;20034;-68
2021/04/27 00:06:10;;;;;;;13.80;5.55;;;;;;;;;;5147940;27;20031;-67
2021/04/27 00:08:39;;;;;;;10.77;5.38;;;;;;;;;;5127367;27;20380;-68
2021/04/27 00:11:05;;;;;;;9.25;5.50;;;;;;;;;;5129493;27;20035;-68
2021/04/27 00:13:31;;;;;;;8.77;5.80;;;;;;;;;;5140344;27;20035;-68
2021/04/27 00:15:57;;;;;;;13.55;6.22;;;;;;;;;;5144310;27;20035;-68
2021/04/27 00:18:23;;;;;;;13.80;6.45;;;;;;;;;;5139569;27;20102;-68
2021/04/27 00:20:50;;;;;;;14.90;6.45;;;;;;;;;;5146577;27;20379;-68
2021/04/27 00:23:16;;;;;;;13.35;4.90;;;;;;;;;;5144240;27;20048;-68
2021/04/27 00:25:42;;;;;;;9.32;5.63;;;;;;;;;;5136805;27;20035;-68
2021/04/27 00:28:09;;;;;;;14.15;5.90;;;;;;;;;;5136793;27;20043;-68
2021/04/27 00:30:35;;;;;;;8.90;5.68;;;;;;;;;;5122227;27;20035;-68
2021/04/27 00:33:01;;;;;;;13.95;5.85;;;;;;;;;;5145097;27;20034;-68
2021/04/27 00:35:30;;;;;;;8.65;5.28;;;;;;;;;;5151843;27;20051;-68
2021/04/27 00:37:56;;;;;;;15.88;5.55;;;;;;;;;;5136876;27;20051;-66
2021/04/27 00:40:22;;;;;;;10.57;6.13;;;;;;;;;;5145029;27;20282;-66
2021/04/27 00:42:49;;;;;;;14.43;6.25;;;;;;;;;;5137995;27;20035;-66
2021/04/27 00:45:17;;;;;;;13.80;5.70;;;;;;;;;;5144025;27;20096;-66
2021/04/27 00:47:43;;;;;;;12.43;5.93;;;;;;;;;;5147888;27;20041;-67
2021/04/27 00:50:11;;;;;;;9.18;5.60;;;;;;;;;;5143658;27;20150;-67
2021/04/27 00:52:38;;;;;;;10.45;5.43;;;;;;;;;;5150800;27;20091;-66
2021/04/27 00:55:05;;;;;;;11.75;6.40;;;;;;;;;;5128260;27;20039;-66
2021/04/27 00:57:31;;;;;;;15.63;6.63;;;;;;;;;;5147009;27;20062;-66
2021/04/27 00:59:58;;;;;;;11.02;5.82;;;;;;;;;;5122696;27;20034;-67
2021/04/27 01:02:27;;;;;;;9.77;5.55;;;;;;;;;;5136876;27;20077;-66
2021/04/27 01:04:55;;;;;;;12.07;6.40;;;;;;;;;;5150850;27;20064;-67
2021/04/27 01:07:22;;;;;;;13.75;6.22;;;;;;;;;;5146046;27;20036;-67
2021/04/27 01:09:51;;;;;;;11.50;6.40;;;;;;;;;;5144572;27;20038;-68
2021/04/27 01:12:23;;;;;;;11.07;6.40;;;;;;;;;;5141376;27;20034;-67
2021/04/27 01:14:57;;;;;;;14.63;5.65;;;;;;;;;;5143720;27;20039;-67
2021/04/27 01:17:24;;;;;;;13.15;6.72;;;;;;;;;;5148210;27;20098;-67
2021/04/27 01:19:53;;;;;;;12.45;6.07;;;;;;;;;;5152051;27;20146;-67
2021/04/27 01:22:21;;;;;;;16.48;6.35;;;;;;;;;;5139197;27;20035;-68
2021/04/27 01:24:52;;;;;;;10.50;6.60;;;;;;;;;;5136505;27;20474;-68
2021/04/27 01:27:18;;;;;;;14.90;6.30;;;;;;;;;;5142997;27;20438;-68
2021/04/27 01:29:45;;;;;;;11.10;6.20;;;;;;;;;;5130134;27;20066;-68
2021/04/27 01:32:11;;;;;;;12.93;6.93;;;;;;;;;;5120922;28;20487;-67
2021/04/27 01:34:42;;;;;;;8.45;6.30;;;;;;;;;;5145883;27;20030;-67
2021/04/27 01:37:09;;;;;;;12.48;6.50;;;;;;;;;;5147561;27;20073;-67
2021/04/27 01:39:35;;;;;;;16.95;6.47;;;;;;;;;;5145724;27;20090;-67
2021/04/27 01:42:03;;;;;;;12.75;7.80;;;;;;;;;;5148498;27;20039;-67
2021/04/27 01:44:30;;;;;;;18.50;7.28;;;;;;;;;;5143467;27;20084;-67
2021/04/27 01:46:57;;;;;;;15.88;7.68;;;;;;;;;;5146666;27;20465;-67
2021/04/27 01:49:23;;;;;;;10.63;7.00;;;;;;;;;;5140106;27;20049;-67
2021/04/27 01:51:50;;;;;;;12.27;7.57;;;;;;;;;;5148447;27;20034;-67
2021/04/27 01:54:17;;;;;;;13.50;7.25;;;;;;;;;;5145357;27;20043;-68
2021/04/27 01:56:43;;;;;;;15.30;6.93;;;;;;;;;;5143406;27;20125;-67
2021/04/27 01:59:10;;;;;;;13.40;7.90;;;;;;;;;;5138105;27;20034;-67
2021/04/27 02:01:36;;;;;;;13.25;7.13;;;;;;;;;;5123831;27;20481;-67
2021/04/27 02:04:02;;;;;;;10.88;7.15;;;;;;;;;;5154564;27;20039;-68
2021/04/27 02:06:29;;;;;;;18.85;8.38;;;;;;;;;;5148457;27;20103;-67
2021/04/27 02:09:08;;;;;;;11.90;7.00;;;;;;;;;;5140041;27;20037;-67
2021/04/27 02:11:37;;;;;;;10.13;6.72;;;;;;;;;;5142234;27;20138;-67
2021/04/27 02:14:04;;;;;;;12.98;7.35;;;;;;;;;;5140198;27;20351;-67
2021/04/27 02:16:33;;;;;;;13.05;7.97;;;;;;;;;;5142657;27;20393;-67
2021/04/27 02:18:59;;;;;;;13.50;7.32;;;;;;;;;;5146160;27;20034;-67
2021/04/27 02:21:27;;;;;;;13.63;6.75;;;;;;;;;;5149947;27;20026;-67
2021/04/27 02:23:55;;;;;;;12.55;7.10;;;;;;;;;;5140232;27;20033;-67
2021/04/27 02:26:21;;;;;;;10.48;7.18;;;;;;;;;;5150250;27;20086;-67
2021/04/27 02:28:48;;;;;;;12.13;7.63;;;;;;;;;;5150837;27;20026;-67
2021/04/27 02:31:14;;;;;;;13.52;7.63;;;;;;;;;;5125835;27;20088;-67
2021/04/27 02:33:41;;;;;;;13.20;7.50;;;;;;;;;;5139679;27;20035;-67
2021/04/27 02:36:07;;;;;;;15.35;7.28;;;;;;;;;;5141700;27;20066;-67
2021/04/27 02:38:34;;;;;;;15.05;8.80;;;;;;;;;;5150094;27;20437;-67
2021/04/27 02:41:00;;;;;;;11.80;7.53;;;;;;;;;;5146701;27;20035;-67
2021/04/27 02:43:27;;;;;;;13.50;7.97;;;;;;;;;;5145240;27;20471;-67
2021/04/27 02:45:54;;;;;;;17.80;7.78;;;;;;;;;;5146441;27;20443;-67
2021/04/27 02:48:24;;;;;;;13.65;7.40;;;;;;;;;;5146817;27;20038;-67
2021/04/27 02:50:51;;;;;;;12.57;7.05;;;;;;;;;;5137998;27;20086;-67
2021/04/27 02:53:18;;;;;;;16.83;7.80;;;;;;;;;;5147418;27;20030;-67
2021/04/27 02:55:45;;;;;;;13.10;7.82;;;;;;;;;;5121482;27;20423;-67
2021/04/27 02:58:12;;;;;;;11.93;7.63;;;;;;;;;;5145397;27;20150;-67
2021/04/27 03:00:39;;;;;;;19.95;8.23;;;;;;;;;;5129459;27;20030;-67
2021/04/27 03:03:05;;;;;;;15.20;7.72;;;;;;;;;;5146360;27;20058;-67
2021/04/27 03:05:31;;;;;;;13.27;7.45;;;;;;;;;;5143946;27;20035;-67
2021/04/27 03:07:58;;;;;;;14.75;8.38;;;;;;;;;;5146085;27;20043;-67
2021/04/27 03:10:25;;;;;;;16.00;7.45;;;;;;;;;;5144517;27;20080;-67
2021/04/27 03:12:51;;;;;;;18.33;8.88;;;;;;;;;;5154653;27;20046;-67
2021/04/27 03:15:18;;;;;;;12.82;8.02;;;;;;;;;;5148170;27;20058;-67
2021/04/27 03:17:44;;;;;;;13.38;8.00;;;;;;;;;;5144905;27;20110;-67
2021/04/27 03:20:11;;;;;;;13.63;7.32;;;;;;;;;;5117745;27;20047;-67
2021/04/27 03:22:37;;;;;;;13.13;8.70;;;;;;;;;;5148949;27;20035;-67
2021/04/27 03:25:04;;;;;;;15.13;8.65;;;;;;;;;;5123953;27;20349;-67
2021/04/27 03:27:31;;;;;;;14.20;8.80;;;;;;;;;;5144855;27;20039;-67
2021/04/27 03:29:57;;;;;;;17.98;8.98;;;;;;;;;;5148111;27;20050;-67
2021/04/27 03:32:23;;;;;;;16.20;8.05;;;;;;;;;;5142646;27;20058;-67
2021/04/27 03:34:50;;;;;;;16.92;9.63;;;;;;;;;;5131596;27;20041;-67
2021/04/27 03:37:16;;;;;;;19.80;8.35;;;;;;;;;;5119857;27;20429;-67
2021/04/27 03:39:42;;;;;;;18.17;9.15;;;;;;;;;;5122103;27;20039;-67
2021/04/27 03:42:08;;;;;;;17.25;9.32;;;;;;;;;;5132938;27;20050;-67
2021/04/27 03:44:35;;;;;;;17.63;9.35;;;;;;;;;;5130381;27;20488;-67
2021/04/27 03:47:02;;;;;;;12.77;8.85;;;;;;;;;;5122962;27;20470;-67
2021/04/27 03:49:28;;;;;;;14.95;8.70;;;;;;;;;;5122490;27;20036;-67
2021/04/27 03:51:55;;;;;;;20.33;9.25;;;;;;;;;;5118532;27;20032;-67
2021/04/27 03:54:21;;;;;;;15.13;8.77;;;;;;;;;;5118590;27;20040;-67
2021/04/27 03:56:48;;;;;;;16.27;8.75;;;;;;;;;;5123967;27;20454;-67
2021/04/27 03:59:14;;;;;;;17.27;9.40;;;;;;;;;;5122040;27;20042;-66
2021/04/27 04:01:41;;;;;;;16.40;10.50;;;;;;;;;;5126510;27;20031;-67
2021/04/27 04:04:07;;;;;;;20.75;9.05;;;;;;;;;;5121304;27;20028;-66
2021/04/27 04:06:33;;;;;;;17.98;9.57;;;;;;;;;;5119513;27;20031;-67
2021/04/27 04:08:59;;;;;;;16.95;9.63;;;;;;;;;;5120785;27;20027;-67
2021/04/27 04:11:25;;;;;;;13.23;9.75;;;;;;;;;;5120450;27;20038;-67
2021/04/27 04:13:52;;;;;;;16.98;9.50;;;;;;;;;;5133520;27;20031;-66
2021/04/27 04:16:18;;;;;;;16.48;9.32;;;;;;;;;;5121667;27;20051;-66
2021/04/27 04:18:44;;;;;;;17.80;9.75;;;;;;;;;;5120509;27;20035;-66
2021/04/27 04:21:10;;;;;;;17.75;9.32;;;;;;;;;;5113608;27;20423;-66
2021/04/27 04:23:36;;;;;;;19.13;9.65;;;;;;;;;;5122669;27;20046;-66
2021/04/27 04:26:03;;;;;;;15.68;9.88;;;;;;;;;;5127546;27;20046;-66
2021/04/27 04:28:29;;;;;;;20.55;10.38;;;;;;;;;;5124359;27;20348;-66
2021/04/27 04:30:55;;;;;;;14.68;10.00;;;;;;;;;;5119935;27;20061;-66
2021/04/27 04:33:21;;;;;;;19.05;9.68;;;;;;;;;;5119736;27;20177;-66
2021/04/27 04:35:47;;;;;;;20.30;9.88;;;;;;;;;;5127755;27;20408;-66
2021/04/27 04:38:17;;;;;;;13.48;9.20;;;;;;;;;;5130516;27;20032;-66
2021/04/27 04:40:43;;;;;;;16.42;9.77;;;;;;;;;;5129511;27;20172;-66
2021/04/27 04:43:09;;;;;;;13.77;9.02;;;;;;;;;;5133384;27;20062;-66
2021/04/27 04:45:35;;;;;;;15.48;9.60;;;;;;;;;;5125293;27;20032;-67
2021/04/27 04:48:02;;;;;;;22.33;9.65;;;;;;;;;;5120721;27;20322;-66
2021/04/27 04:50:28;;;;;;;18.05;9.00;;;;;;;;;;5123627;27;20039;-67
2021/04/27 04:52:54;;;;;;;17.58;8.82;;;;;;;;;;5118762;28;20059;-66
2021/04/27 04:55:21;;;;;;;15.23;8.70;;;;;;;;;;5131365;28;20066;-66
2021/04/27 04:57:47;;;;;;;13.98;8.88;;;;;;;;;;5131013;28;20332;-66
2021/04/27 05:00:15;;;;;;;14.25;8.43;;;;;;;;;;5130592;28;20062;-66
2021/04/27 05:02:41;;;;;;;13.43;8.80;;;;;;;;;;5129984;28;20031;-66
2021/04/27 05:05:08;;;;;;;12.30;7.95;;;;;;;;;;5131383;28;20043;-65
2021/04/27 05:07:42;;;;;;;12.52;7.85;;;;;;;;;;5128441;28;20070;-66
2021/04/27 05:10:08;;;;;;;12.68;7.47;;;;;;;;;;5131593;27;20037;-65
2021/04/27 05:12:35;;;;;;;11.00;7.22;;;;;;;;;;5132051;28;20065;-66
2021/04/27 05:15:01;;;;;;;11.13;7.45;;;;;;;;;;5132338;28;20031;-65
2021/04/27 05:17:29;;;;;;;13.43;6.97;;;;;;;;;;5131013;27;20031;-66
2021/04/27 05:19:55;;;;;;;9.02;6.65;;;;;;;;;;5134722;27;20043;-66
2021/04/27 05:22:22;;;;;;;13.85;6.72;;;;;;;;;;5135240;27;20031;-66
2021/04/27 05:24:48;;;;;;;10.25;6.30;;;;;;;;;;5133798;27;20144;-66
2021/04/27 05:27:14;;;;;;;12.50;6.85;;;;;;;;;;5133331;27;20038;-67
2021/04/27 05:29:40;;;;;;;14.07;6.30;;;;;;;;;;5135150;27;20031;-66
2021/04/27 05:32:08;;;;;;;13.00;5.40;;;;;;;;;;5130364;27;20036;-66
2021/04/27 05:34:35;;;;;;;8.38;5.35;;;;;;;;;;5133058;27;20461;-66
2021/04/27 05:37:01;;;;;;;7.57;5.07;;;;;;;;;;5152720;27;20039;-67
2021/04/27 05:39:27;;;;;;;7.38;4.65;;;;;;;;;;5155679;27;20461;-68
2021/04/27 05:41:54;;;;;;;8.75;4.05;;;;;;;;;;5152809;27;20056;-69
2021/04/27 05:44:20;;;;;;;10.57;4.68;;;;;;;;;;5155522;27;20039;-68
2021/04/27 05:46:46;;;;;;;11.23;5.20;;;;;;;;;;5152388;27;20043;-67
2021/04/27 05:49:12;;;;;;;;;;;;;;;;;;5154502;27;20034;-68
2021/04/27 05:51:38;;;;;;;;;;;;;;;;;;5154693;27;19927;-68
2021/04/27 05:54:04;;;;;;;;;;;;;;;;;;5152681;27;19926;-68
2021/04/27 05:56:30;;;;;;;;;;;;;;;;;;5148219;27;19915;-67
2021/04/27 05:58:57;;;;;;;;;;;;;;;;;;5154214;27;19915;-68
2021/04/27 06:01:23;;;;;;;;;;;;;;;;;;5150858;27;19925;-67
2021/04/27 06:03:51;;;;;;;4.90;3.60;;;;;;;;;;5153401;27;19925;-68
2021/04/27 06:06:17;;;;;;;;;;;;;;;;;;5155165;27;20078;-68
2021/04/27 06:08:43;;;;;;;13.23;3.97;;;;;;;;;;5155274;27;19918;-68
2021/04/27 06:11:09;;;;;;;8.70;3.55;;;;;;;;;;5118485;27;20069;-68
2021/04/27 06:13:36;;;;;;;5.95;3.15;;;;;;;;;;5156156;27;20046;-68
2021/04/27 06:16:02;;;;;;;4.63;3.38;;;;;;;;;;5155569;27;20443;-68
2021/04/27 06:18:28;;;;;;;3.78;3.00;;;;;;;;;;5155117;27;20043;-68
2021/04/27 06:20:55;;;;;;;6.63;3.15;;;;;;;;;;5134957;27;20118;-68
2021/04/27 06:23:21;;;;;;;4.90;3.50;;;;;;;;;;5155818;27;20066;-67
2021/04/27 06:25:48;;;;;;;6.28;3.17;;;;;;;;;;5136595;27;20496;-68
2021/04/27 06:28:14;;;;;;;8.52;3.47;;;;;;;;;;5155693;27;20043;-67
2021/04/27 06:30:41;;;;;;;9.15;3.03;;;;;;;;;;5154547;27;20072;-68
2021/04/27 06:33:07;;;;;;;2.97;2.65;;;;;;;;;;5155298;27;20121;-67
2021/04/27 06:35:34;;;;;;;4.45;3.17;;;;;;;;;;5155616;27;20038;-68
2021/04/27 06:38:00;;;;;;;5.03;2.90;;;;;;;;;;5155038;27;20035;-68
2021/04/27 06:40:27;;;;;;;5.22;2.53;;;;;;;;;;5155820;27;20058;-67
2021/04/27 06:42:53;;;;;;;3.95;2.55;;;;;;;;;;5155020;27;20042;-68
2021/04/27 06:45:19;;;;;;;5.40;2.92;;;;;;;;;;5156085;27;20366;-67
2021/04/27 06:47:46;;;;;;;5.35;3.10;;;;;;;;;;5153669;27;20042;-68
2021/04/27 06:50:13;;;;;;;6.53;2.92;;;;;;;;;;5137348;27;20043;-68
2021/04/27 06:52:39;;;;;;;7.50;3.17;;;;;;;;;;5154843;27;20035;-68
2021/04/27 06:55:07;;;;;;;6.82;2.47;;;;;;;;;;5155504;27;20170;-68
2021/04/27 06:57:33;;;;;;;7.25;2.67;;;;;;;;;;5155098;27;20069;-68
2021/04/27 07:00:00;;;;;;;5.22;2.97;;;;;;;;;;5136576;27;20043;-68
2021/04/27 07:02:26;;;;;;;3.92;2.40;;;;;;;;;;5154673;27;20063;-68
2021/04/27 07:04:52;;;;;;;4.38;2.78;;;;;;;;;;5154734;27;20042;-68
2021/04/27 07:07:18;;;;;;;4.93;2.70;;;;;;;;;;5154887;27;20047;-67
2021/04/27 07:09:45;;;;;;;5.85;2.72;;;;;;;;;;5154430;27;20030;-68
2021/04/27 07:12:11;;;;;;;5.60;2.10;;;;;;;;;;5136552;27;20367;-68
2021/04/27 07:14:37;;;;;;;2.92;2.13;;;;;;;;;;5155420;27;20039;-67
2021/04/27 07:17:04;;;;;;;4.55;2.70;;;;;;;;;;5154038;27;20189;-68
2021/04/27 07:19:30;;;;;;;3.40;2.42;;;;;;;;;;5136601;27;20042;-68
2021/04/27 07:21:56;;;;;;;4.72;2.15;;;;;;;;;;5154516;27;20099;-68
2021/04/27 07:24:24;;;;;;;6.25;2.47;;;;;;;;;;5154936;27;20497;-68
2021/04/27 07:26:50;;;;;;;6.70;2.50;;;;;;;;;;5135858;27;20070;-68
2021/04/27 07:29:17;;;;;;;4.50;2.08;;;;;;;;;;5154359;27;20121;-67
2021/04/27 07:31:43;;;;;;;3.78;2.20;;;;;;;;;;5136496;27;20050;-68
2021/04/27 07:34:10;;;;;;;5.05;2.03;;;;;;;;;;5153737;27;20121;-68
2021/04/27 07:36:37;;;;;;;5.57;2.40;;;;;;;;;;5153843;27;20084;-68
2021/04/27 07:39:07;;;;;;;4.78;2.88;;;;;;;;;;5134907;27;20054;-68
2021/04/27 07:41:33;;;;;;;5.22;2.38;;;;;;;;;;5150660;27;20050;-68
2021/04/27 07:43:59;;;;;;;7.95;2.50;;;;;;;;;;5153783;27;20466;-68
2021/04/27 07:46:26;;;;;;;4.47;2.40;;;;;;;;;;5154481;27;20053;-68
2021/04/27 07:48:52;;;;;;;4.50;2.28;;;;;;;;;;5153078;27;20060;-68
2021/04/27 07:51:18;;;;;;;7.75;2.15;;;;;;;;;;5153427;27;20475;-68
2021/04/27 07:53:44;;;;;;;5.13;2.53;;;;;;;;;;5135018;27;20043;-67
2021/04/27 07:56:11;;;;;;;4.47;2.20;;;;;;;;;;5153100;27;20048;-68
2021/04/27 07:58:37;;;;;;;6.18;2.33;;;;;;;;;;5153720;27;20515;-68
2021/04/27 08:01:04;;;;;;;3.10;2.20;;;;;;;;;;5134844;27;20126;-68
2021/04/27 08:03:30;;;;;;;5.25;2.28;;;;;;;;;;5153550;27;20043;-68
2021/04/27 08:05:56;;;;;;;6.25;2.20;;;;;;;;;;5153191;27;20095;-69
2021/04/27 08:08:23;;;;;;;2.88;1.70;;;;;;;;;;5135320;27;20038;-69
2021/04/27 08:10:49;;;;;;;5.28;2.40;;;;;;;;;;5153431;27;20050;-70
2021/04/27 08:13:15;;;;;;;3.25;2.00;;;;;;;;;;5153315;27;20066;-68
2021/04/27 08:15:41;;;;;;;5.03;2.20;;;;;;;;;;5153072;27;20034;-68
2021/04/27 08:18:08;;;;;;;4.80;2.08;;;;;;;;;;5152633;27;20065;-69
2021/04/27 08:20:36;;;;;;;3.35;2.10;;;;;;;;;;5145159;27;20077;-69
2021/04/27 08:23:03;;;;;;;9.70;2.20;;;;;;;;;;5152508;27;20145;-70
2021/04/27 08:25:30;;;;;;;3.80;2.10;;;;;;;;;;5135527;27;20445;-69
2021/04/27 08:27:56;;;;;;;3.33;2.00;;;;;;;;;;5150961;27;20153;-69
2021/04/27 08:30:23;;;;;;;4.07;2.00;;;;;;;;;;5151713;27;20046;-68
2021/04/27 08:32:52;;;;;;;8.32;2.25;;;;;;;;;;5122591;27;20111;-68
2021/04/27 08:35:18;;;;;;;5.63;2.22;;;;;;;;;;5152372;27;20469;-68
2021/04/27 08:37:45;;;;;;;3.55;2.40;;;;;;;;;;5152530;27;20045;-69
2021/04/27 08:40:12;;;;;;;6.75;2.35;;;;;;;;;;5152021;27;20039;-69
2021/04/27 08:42:39;;;;;;;3.10;1.92;;;;;;;;;;5134088;27;20050;-69
2021/04/27 08:45:07;;;;;;;4.32;2.67;;;;;;;;;;5150984;27;20038;-68
2021/04/27 08:47:33;;;;;;;4.63;2.35;;;;;;;;;;5134357;27;20047;-68
2021/04/27 08:49:59;;;;;;;4.43;2.13;;;;;;;;;;5152099;27;20053;-68
2021/04/27 08:52:25;;;;;;;4.07;2.55;;;;;;;;;;5150367;27;20058;-69
2021/04/27 08:54:52;;;;;;;5.18;2.40;;;;;;;;;;5150954;27;20049;-68
2021/04/27 08:57:18;;;;;;;3.55;2.10;;;;;;;;;;5151905;27;20035;-69
2021/04/27 08:59:44;;;;;;;4.93;2.17;;;;;;;;;;5113631;28;20039;-69
2021/04/27 09:02:11;;;;;;;3.97;2.38;;;;;;;;;;5134285;27;20054;-69
2021/04/27 09:04:39;;;;;;;7.70;2.33;;;;;;;;;;5133430;27;20515;-68
2021/04/27 09:07:09;;;;;;;5.75;2.60;;;;;;;;;;5151939;27;20035;-68
2021/04/27 09:10:02;;;;;;;4.22;2.25;;;;;;;;;;5129176;27;20047;-71
2021/04/27 09:12:31;;;;;;;3.65;2.17;;;;;;;;;;5134013;27;20043;-72
2021/04/27 09:14:58;;;;;;;7.15;2.00;;;;;;;;;;5142835;27;20465;-73
2021/04/27 09:17:26;;;;;;;3.30;2.30;;;;;;;;;;5146590;27;20039;-72
2021/04/27 09:19:53;;;;;;;4.60;2.42;;;;;;;;;;5142105;27;20051;-73
2021/04/27 09:22:20;;;;;;;2.33;1.98;;;;;;;;;;5130413;28;20046;-71
2021/04/27 09:24:50;;;;;;;6.97;2.03;;;;;;;;;;5137665;27;20050;-71
2021/04/27 09:27:44;;;;;;;3.65;2.50;;;;;;;;;;5132440;27;20093;-70
2021/04/27 09:30:14;;;;;;;4.97;2.20;;;;;;;;;;5136714;27;20172;-71
2021/04/27 09:32:45;;;;;;;8.55;2.53;;;;;;;;;;5145709;27;20039;-71
2021/04/27 09:35:24;;;;;;;5.80;2.75;;;;;;;;;;5149119;27;20504;-71
2021/04/27 09:38:10;;;;;;;5.78;2.92;;;;;;;;;;5148300;27;20062;-70
2021/04/27 09:40:49;;;;;;;3.50;2.17;;;;;;;;;;5116562;28;20085;-71
2021/04/27 09:43:16;;;;;;;7.18;2.42;;;;;;;;;;5138074;27;20039;-71
2021/04/27 09:45:43;;;;;;;5.43;2.40;;;;;;;;;;5140533;27;20090;-71
2021/04/27 09:48:10;;;;;;;4.65;2.30;;;;;;;;;;5094788;28;20051;-72
2021/04/27 09:50:37;;;;;;;3.03;2.30;;;;;;;;;;5137446;27;20057;-71
2021/04/27 09:53:04;;;;;;;4.72;2.20;;;;;;;;;;5148785;27;20091;-71
2021/04/27 09:55:34;;;;;;;3.15;2.25;;;;;;;;;;5135348;27;20038;-71
2021/04/27 09:58:01;;;;;;;3.03;2.72;;;;;;;;;;5144033;27;20109;-71
2021/04/27 10:00:31;;;;;;;4.35;1.90;;;;;;;;;;5144796;27;20358;-71
2021/04/27 10:02:59;;;;;;;5.03;1.98;;;;;;;;;;5111246;28;20035;-71
2021/04/27 10:05:26;;;;;;;4.85;2.40;;;;;;;;;;5133753;27;20047;-71
2021/04/27 10:07:54;;;;;;;3.90;2.13;;;;;;;;;;5115484;27;20043;-73
2021/04/27 10:10:20;;;;;;;2.63;1.88;;;;;;;;;;5122021;27;20123;-72
2021/04/27 10:12:47;;;;;;;6.93;2.22;;;;;;;;;;5147283;27;20126;-71
2021/04/27 10:15:14;;;;;;;6.55;2.28;;;;;;;;;;5141386;27;20501;-70
2021/04/27 10:17:41;;;;;;;5.43;2.30;;;;;;;;;;5123437;27;20041;-72
2021/04/27 10:20:11;;;;;;;6.93;2.20;;;;;;;;;;5139321;27;20043;-72
2021/04/27 10:22:38;;;;;;;5.50;2.38;;;;;;;;;;5120893;27;20046;-71
2021/04/27 10:25:04;;;;;;;4.78;2.00;;;;;;;;;;5148965;27;20061;-71
2021/04/27 10:27:30;;;;;;;3.90;2.00;;;;;;;;;;5123756;27;20466;-69
2021/04/27 10:30:30;;;;;;;3.80;2.38;;;;;;;;;;5115212;27;20059;-71
2021/04/27 10:33:02;;;;;;;3.55;1.95;;;;;;;;;;5091455;27;20242;-67
2021/04/27 10:35:33;;;;;;;3.80;1.80;;;;;;;;;;5148813;27;20485;-68
2021/04/27 10:38:02;;;;;;;7.57;2.10;;;;;;;;;;5143025;27;20047;-68
2021/04/27 10:40:46;;;;;;;5.90;2.30;;;;;;;;;;5149183;27;20051;-67
2021/04/27 10:43:27;;;;;;;6.30;2.67;;;;;;;;;;5145301;27;20078;-70
2021/04/27 10:45:54;;;;;;;4.18;1.83;;;;;;;;;;5145132;27;20054;-72
2021/04/27 10:48:37;;;;;;;7.40;2.17;;;;;;;;;;5147732;27;20457;-71
2021/04/27 10:51:22;;;;;;;2.78;1.80;;;;;;;;;;5132643;27;20047;-71
2021/04/27 10:54:07;;;;;;;4.53;2.20;;;;;;;;;;5152995;27;20046;-71
2021/04/27 10:56:39;;;;;;;3.45;1.60;;;;;;;;;;5143974;27;20095;-71
2021/04/27 10:59:07;;;;;;;4.13;2.00;;;;;;;;;;5149903;27;20039;-71
2021/04/27 11:01:33;;;;;;;4.22;1.80;;;;;;;;;;5152324;27;20057;-70
2021/04/27 11:04:00;;;;;;;4.07;2.00;;;;;;;;;;5149517;27;20031;-69
2021/04/27 11:06:26;;;;;;;2.88;1.88;;;;;;;;;;5151032;27;20050;-71
2021/04/27 11:09:12;;;;;;;5.25;2.10;;;;;;;;;;5150428;27;20058;-70
2021/04/27 11:11:38;;;;;;;5.03;2.17;;;;;;;;;;5133123;27;20112;-71
2021/04/27 11:14:20;;;;;;;3.22;2.10;;;;;;;;;;5132595;27;20043;-71
2021/04/27 11:16:52;;;;;;;5.25;2.00;;;;;;;;;;5131055;27;20069;-71
2021/04/27 11:19:18;;;;;;;2.72;2.10;;;;;;;;;;5146164;27;20128;-71
2021/04/27 11:21:45;;;;;;;3.70;1.65;;;;;;;;;;5132168;27;20063;-72
2021/04/27 11:24:31;;;;;;;5.22;1.60;;;;;;;;;;5149244;27;20054;-69
2021/04/27 11:32:11;;;;;;;1.50;1.20;;;;;;;;;;5201162;22;21902;-71
2021/04/27 11:34:48;;;;;;;1.75;1.58;;;;;;;;;;4992252;28;20463;-68
2021/04/27 11:37:18;;;;;;;3.50;2.10;;;;;;;;;;5008707;28;20399;-69
2021/04/27 11:39:44;;;;;;;4.45;1.90;;;;;;;;;;5022008;28;20053;-68
2021/04/27 11:42:10;;;;;;;3.60;2.20;;;;;;;;;;5003041;28;20050;-68
2021/04/27 11:44:41;;;;;;;3.97;1.90;;;;;;;;;;4999054;28;20097;-69
2021/04/27 11:47:17;;;;;;;6.82;2.38;;;;;;;;;;5016557;28;20092;-68
2021/04/27 11:49:47;;;;;;;3.03;2.20;;;;;;;;;;5007367;28;20457;-67
2021/04/27 11:52:14;;;;;;;4.32;2.53;;;;;;;;;;5009597;28;20141;-68
2021/04/27 11:54:41;;;;;;;4.68;1.63;;;;;;;;;;5012164;28;20062;-71
2021/04/27 11:57:16;;;;;;;7.35;2.10;;;;;;;;;;4998743;28;20040;-69
2021/04/27 11:59:43;;;;;;;3.13;2.28;;;;;;;;;;5024895;28;20042;-67
2021/04/27 12:02:13;;;;;;;4.72;2.10;;;;;;;;;;5012378;28;20050;-68
2021/04/27 12:04:41;;;;;;;3.78;1.92;;;;;;;;;;5021758;28;20472;-68
2021/04/27 12:07:07;;;;;;;3.83;1.90;;;;;;;;;;5012532;28;20484;-67
2021/04/27 12:09:41;;;;;;;3.72;1.85;;;;;;;;;;5010788;28;20054;-66
2021/04/27 12:12:08;;;;;;;3.33;1.70;;;;;;;;;;5010659;28;20050;-66
2021/04/27 12:14:34;;;;;;;3.97;2.10;;;;;;;;;;5016270;28;20117;-67
2021/04/27 12:17:00;;;;;;;4.95;2.80;;;;;;;;;;5004246;28;20481;-69
2021/04/27 12:19:27;;;;;;;3.35;2.22;;;;;;;;;;5018378;28;20059;-67
2021/04/27 12:21:54;;;;;;;7.88;2.33;;;;;;;;;;5015851;28;20075;-69
2021/04/27 12:24:23;;;;;;;3.10;2.22;;;;;;;;;;5010347;28;20076;-69
2021/04/27 12:26:49;;;;;;;3.13;2.10;;;;;;;;;;4990060;28;20406;-68
2021/04/27 12:29:16;;;;;;;6.47;2.05;;;;;;;;;;5012400;28;20096;-71
2021/04/27 12:31:43;;;;;;;3.42;2.10;;;;;;;;;;5010806;28;20120;-69
2021/04/27 12:34:16;;;;;;;4.00;1.80;;;;;;;;;;5008586;28;20058;-69
2021/04/27 12:36:47;;;;;;;7.07;2.50;;;;;;;;;;5011904;28;20045;-70
2021/04/27 12:39:19;;;;;;;3.08;2.05;;;;;;;;;;5010906;28;20045;-71
2021/04/27 12:41:45;;;;;;;3.58;2.20;;;;;;;;;;5013206;28;20092;-72
2021/04/27 12:44:30;;;;;;;4.75;2.13;;;;;;;;;;4993904;28;20053;-73
2021/04/27 12:46:56;;;;;;;5.55;1.92;;;;;;;;;;5026561;28;20484;-68
2021/04/27 12:49:26;;;;;;;3.42;2.10;;;;;;;;;;5018024;28;20103;-68
2021/04/27 12:52:05;;;;;;;5.47;2.33;;;;;;;;;;4999955;28;20045;-70
2021/04/27 12:54:31;;;;;;;6.78;2.55;;;;;;;;;;5013478;28;20488;-70
2021/04/27 12:57:08;;;;;;;11.00;3.45;;;;;;;;;;5015704;28;20050;-67
2021/04/27 12:59:35;;;;;;;5.13;2.45;;;;;;;;;;5017048;28;20073;-68
2021/04/27 13:02:04;;;;;;;3.08;2.15;;;;;;;;;;5017923;28;20494;-67
2021/04/27 13:04:31;;;;;;;12.18;2.30;;;;;;;;;;5005159;28;20069;-67
2021/04/27 13:06:58;;;;;;;3.13;2.25;;;;;;;;;;5022568;28;20042;-67
2021/04/27 13:09:28;;;;;;;6.22;2.33;;;;;;;;;;4975535;28;20050;-67
2021/04/27 13:11:57;;;;;;;5.82;2.60;;;;;;;;;;4993706;28;20453;-66
2021/04/27 13:14:30;;;;;;;2.88;2.20;;;;;;;;;;5008572;28;20053;-67
2021/04/27 13:16:57;;;;;;;3.90;2.00;;;;;;;;;;5010953;28;20103;-66
2021/04/27 13:19:23;;;;;;;3.38;2.20;;;;;;;;;;5009417;28;20049;-67
2021/04/27 13:22:08;;;;;;;6.57;2.50;;;;;;;;;;5010643;28;20060;-67
2021/04/27 13:24:37;;;;;;;4.07;2.53;;;;;;;;;;5010203;28;20053;-67
2021/04/27 13:27:03;;;;;;;8.10;2.90;;;;;;;;;;5011144;28;20037;-66
2021/04/27 13:29:33;;;;;;;4.82;2.75;;;;;;;;;;5010632;28;20874;-66
2021/04/27 13:32:13;;;;;;;9.45;2.75;;;;;;;;;;5010792;28;20058;-66
2021/04/27 13:34:39;;;;;;;6.40;2.88;;;;;;;;;;5009970;28;20495;-66
2021/04/27 13:37:05;;;;;;;3.83;2.20;;;;;;;;;;5010695;28;20042;-67
2021/04/27 13:39:31;;;;;;;6.75;2.42;;;;;;;;;;5010932;28;20053;-67
2021/04/27 13:41:57;;;;;;;3.20;2.60;;;;;;;;;;4998233;28;20065;-67
2021/04/27 13:44:23;;;;;;;5.80;2.78;;;;;;;;;;5013991;28;20469;-67
2021/04/27 13:46:50;;;;;;;2.85;2.45;;;;;;;;;;4982511;28;20045;-70
2021/04/27 13:49:16;;;;;;;7.68;3.47;;;;;;;;;;5012767;28;20045;-66
2021/04/27 13:51:42;;;;;;;6.18;4.20;;;;;;;;;;5015110;28;20038;-67
2021/04/27 13:54:08;;;;;;;3.20;2.80;;;;;;;;;;5023801;28;20368;-67
2021/04/27 13:56:34;;;;;;;6.38;2.90;;;;;;;;;;5008914;28;20121;-67
2021/04/27 13:59:00;;;;;;;22.98;3.63;;;;;;;;;;5009032;28;20096;-67
2021/04/27 14:01:27;;;;;;;8.55;2.85;;;;;;;;;;5016686;28;20049;-67
2021/04/27 14:03:53;;;;;;;5.53;2.53;;;;;;;;;;5011691;28;20125;-67
2021/04/27 14:06:19;;;;;;;8.05;2.88;;;;;;;;;;5012258;28;20094;-67
2021/04/27 14:08:45;;;;;;;3.85;2.92;;;;;;;;;;5011825;28;20417;-66
2021/04/27 14:11:12;;;;;;;7.32;3.58;;;;;;;;;;5022338;28;20102;-66
2021/04/27 14:13:38;;;;;;;4.97;2.95;;;;;;;;;;4998296;28;20049;-66
2021/04/27 14:16:04;;;;;;;5.35;3.00;;;;;;;;;;5014183;28;20080;-67
2021/04/27 14:18:30;;;;;;;8.00;3.78;;;;;;;;;;4994303;28;20069;-68
2021/04/27 14:20:56;;;;;;;11.73;3.67;;;;;;;;;;5011543;28;20092;-67
2021/04/27 14:23:23;;;;;;;29.48;5.22;;;;;;;;;;5011344;28;20048;-67
2021/04/27 14:25:50;;;;;;;17.77;3.70;;;;;;;;;;5011846;28;20065;-67
2021/04/27 14:28:16;;;;;;;10.40;4.15;;;;;;;;;;5009959;28;20046;-67
2021/04/27 14:30:43;;;;;;;6.65;3.25;;;;;;;;;;5009449;28;20092;-67
2021/04/27 14:33:10;;;;;;;7.32;4.10;;;;;;;;;;5009185;28;20096;-67
2021/04/27 14:35:38;;;;;;;11.85;4.75;;;;;;;;;;5007736;28;20030;-67
2021/04/27 14:38:05;;;;;;;8.98;3.85;;;;;;;;;;5011113;28;20492;-67
2021/04/27 14:40:32;;;;;;;6.75;4.28;;;;;;;;;;4992739;28;20100;-68
2021/04/27 14:42:58;;;;;;;9.77;3.80;;;;;;;;;;5010502;28;20544;-69
2021/04/27 14:45:26;;;;;;;7.50;3.33;;;;;;;;;;4992036;28;20052;-67
2021/04/27 14:47:53;;;;;;;3.90;2.60;;;;;;;;;;5011150;28;20100;-67
2021/04/27 14:50:20;;;;;;;5.93;3.03;;;;;;;;;;5009727;28;20126;-67